HOURLY OBS INDEX

043

Maranoa

ROMA AIRPORT

Site: 043091
Alt: 307.4m
2km NNW of ROMA


  Time     Wind        Temp  DP   Baro     Rain since   Rain past  Vis(m), Cloud(base in m), Weather
  local        km/h                         9am  last   hr   10m    
Mon 19:00  NNE 15/ 20  30.5  9.4  1012.5    0.0   0.0   0.0   0.0   10000 
Mon 19:00  NNE 15/ 20  30.5  9.4  1012.5    0.0   0.0  ----   0.0   10000 
Mon 19:30  NNE 19/ 22  29.6 10.2  1012.7    0.0   0.0   0.0   0.0   10000 
Mon 19:30  NNE 19/ 22  29.6 10.2  1012.7    0.0   0.0  ----   0.0   10000 
Mon 20:00  NNE 17/ 22  29.0 10.2  1012.9    0.0   0.0   0.0   0.0   10000 
Mon 20:00  NNE 17/ 22  29.0 10.2  1012.9    0.0   0.0  ----   0.0   10000 
Mon 20:30  NNE 13/ 17  27.8 10.1  1013.3    0.0   0.0   0.0   0.0   10000 
Mon 21:00  NNE 15/ 20  27.5 10.7  1013.8    0.0   0.0   0.0   0.0   10000 
Mon 21:30  NNE 15/ 20  27.1 11.6  1014.0    0.0   0.0   0.0   0.0   10000 
Mon 22:00  NNE 17/ 20  26.6 12.3  1014.2    0.0   0.0   0.0   0.0   10000 
Mon 22:30  NNE 17/ 20  26.5 12.9  1014.1    0.0   0.0   0.0   0.0   10000 
Mon 23:00  NNE 19/ 24  26.3 13.1  1014.0    0.0   0.0   0.0   0.0   10000 
Mon 23:30  NNE 20/ 26  26.0 13.5  1013.9    0.0   0.0   0.0   0.0   10000 
Tue 00:00  NNE 19/ 22  25.2 13.7  1013.7    0.0   0.0   0.0   0.0   10000 
Tue 00:30  NNE 17/ 22  24.8 14.0  1013.4    0.0   0.0   0.0   0.0   10000 

ST GEORGE AIRPORT

Site: 043109
Alt: 198.5m
4km SSE of ST GEORGE


  Time     Wind        Temp  DP   Baro     Rain since   Rain past  Vis(m), Cloud(base in m), Weather
  local        km/h                         9am  last   hr   10m    
Mon 19:00    E 11/ 17  32.7  6.8  1011.6    0.0   0.0   0.0   0.0   10000 
Mon 19:00    E 11/ 17  32.7  6.8  1011.6    0.0   0.0  ----   0.0   10000 
Mon 19:30  ESE  9/ 11  30.8  6.6  1012.0    0.0   0.0   0.0   0.0   10000 
Mon 19:30  ESE  9/ 11  30.8  6.6  1012.0    0.0   0.0  ----   0.0   10000 
Mon 20:00    E  7/  9  30.5  7.7  1012.2    0.0   0.0   0.0   0.0   10000 
Mon 20:00    E  7/  9  30.5  7.7  1012.2    0.0   0.0  ----   0.0   10000 
Mon 20:30  ESE  7/  9  30.3  7.5  1012.4    0.0   0.0   0.0   0.0   10000 
Mon 21:00    E  7/ 13  29.4  7.3  1012.6    0.0   0.0   0.0   0.0   10000 
Mon 21:30  ESE  7/ 11  28.3  7.0  1012.7    0.0   0.0   0.0   0.0   10000 
Mon 22:00  ENE  7/  9  28.0  7.8  1012.7    0.0   0.0   0.0   0.0   10000 
Mon 22:30    C  0/  0  25.2  8.2  1012.7    0.0   0.0   0.0   0.0   10000 
Mon 23:00  ENE  6/  9  24.9  8.8  1012.6    0.0   0.0   0.0   0.0   10000 
Mon 23:30   NE  7/  9  24.8  8.3  1012.5    0.0   0.0   0.0   0.0   10000 
Tue 00:00   NE  6/  7  24.6  9.0  1012.2    0.0   0.0   0.0   0.0   10000 
Tue 00:30  NNE  9/ 13  25.3  8.3  1011.9    0.0   0.0   0.0   0.0   10000